createdAt,value
2016-03-27T00:00:06.886Z,963.71
2016-03-27T00:01:06.877Z,963.74
2016-03-27T00:02:06.879Z,963.74
2016-03-27T00:03:06.882Z,963.75
2016-03-27T00:04:06.885Z,963.77
2016-03-27T00:05:06.888Z,963.75
2016-03-27T00:06:06.890Z,963.74
2016-03-27T00:07:06.877Z,963.72
2016-03-27T00:08:06.880Z,963.76
2016-03-27T00:09:06.883Z,963.75
2016-03-27T00:10:06.885Z,963.72
2016-03-27T00:11:06.888Z,963.77
2016-03-27T00:12:06.891Z,963.7
2016-03-27T00:13:06.877Z,963.68
2016-03-27T00:14:06.880Z,963.7
2016-03-27T00:15:06.882Z,963.68
2016-03-27T00:16:06.901Z,963.68
2016-03-27T00:17:06.887Z,963.66
2016-03-27T00:18:06.885Z,963.6
2016-03-27T00:19:06.858Z,963.57
2016-03-27T00:20:06.846Z,963.6
2016-03-27T00:21:06.833Z,963.57
2016-03-27T00:22:06.821Z,963.57
2016-03-27T00:23:06.812Z,963.56
2016-03-27T00:24:06.793Z,963.54
2016-03-27T00:25:06.791Z,963.54
2016-03-27T00:26:06.788Z,963.56
2016-03-27T00:27:06.785Z,963.55
2016-03-27T00:28:06.784Z,963.5
2016-03-27T00:29:06.768Z,963.51
2016-03-27T00:30:06.769Z,963.5
2016-03-27T00:31:06.769Z,963.55
2016-03-27T00:32:06.770Z,963.57
2016-03-27T00:33:06.770Z,963.57
2016-03-27T00:34:06.772Z,963.51
2016-03-27T00:35:06.759Z,963.56
2016-03-27T00:36:06.761Z,963.56
2016-03-27T00:37:06.762Z,963.59
2016-03-27T00:38:06.765Z,963.61
2016-03-27T00:39:06.768Z,963.57
2016-03-27T00:40:06.771Z,963.53
2016-03-27T00:41:06.757Z,963.55
2016-03-27T00:42:06.760Z,963.53
2016-03-27T00:43:06.762Z,963.57
2016-03-27T00:44:06.766Z,963.54
2016-03-27T00:45:06.768Z,963.54
2016-03-27T00:46:06.755Z,963.44
2016-03-27T00:47:06.758Z,963.43
2016-03-27T00:48:06.761Z,963.44
2016-03-27T00:49:06.764Z,963.46
2016-03-27T00:50:08.344Z,963.52
2016-03-27T00:51:06.753Z,963.5
2016-03-27T00:52:06.756Z,963.47
2016-03-27T00:53:06.759Z,963.41
2016-03-27T00:54:06.761Z,963.42
2016-03-27T00:55:06.747Z,963.42
2016-03-27T00:56:06.751Z,963.42
2016-03-27T00:57:06.753Z,963.41
2016-03-27T00:58:06.756Z,963.44
2016-03-27T00:59:06.759Z,963.45
2016-03-27T01:00:06.761Z,963.47
2016-03-27T01:01:06.764Z,963.44
2016-03-27T01:02:06.752Z,963.4
2016-03-27T01:03:06.754Z,963.41
2016-03-27T01:04:06.772Z,963.38
2016-03-27T01:05:06.760Z,963.41
2016-03-27T01:06:06.762Z,963.42
2016-03-27T01:07:06.766Z,963.42
2016-03-27T01:08:06.756Z,963.36
2016-03-27T01:09:06.758Z,963.32
2016-03-27T01:10:06.761Z,963.35
2016-03-27T01:11:06.764Z,963.3
2016-03-27T01:12:06.750Z,963.34
2016-03-27T01:13:06.754Z,963.36
2016-03-27T01:14:06.756Z,963.36
2016-03-27T01:15:06.743Z,963.3
2016-03-27T01:16:06.747Z,963.31
2016-03-27T01:17:06.749Z,963.33
2016-03-27T01:18:06.751Z,963.35
2016-03-27T01:19:06.755Z,963.33
2016-03-27T01:20:06.741Z,963.35
2016-03-27T01:21:06.744Z,963.36
2016-03-27T01:22:06.747Z,963.32
2016-03-27T01:23:06.749Z,963.37
2016-03-27T01:24:06.752Z,963.35
2016-03-27T01:25:06.755Z,963.36
2016-03-27T01:26:06.757Z,963.37
2016-03-27T01:27:06.759Z,963.32
2016-03-27T01:28:06.747Z,963.34
2016-03-27T01:29:06.749Z,963.33
2016-03-27T01:30:06.752Z,963.31
2016-03-27T01:31:06.740Z,963.31
2016-03-27T01:32:06.742Z,963.29
2016-03-27T01:33:06.745Z,963.32
2016-03-27T01:34:06.748Z,963.3
2016-03-27T01:35:06.750Z,963.34
2016-03-27T01:36:06.753Z,963.33
2016-03-27T01:37:06.740Z,963.37
2016-03-27T01:38:06.742Z,963.35
2016-03-27T01:39:06.745Z,963.36
2016-03-27T01:40:06.748Z,963.3
2016-03-27T01:41:06.751Z,963.34
2016-03-27T01:42:06.754Z,963.35
2016-03-27T01:43:06.741Z,963.34
2016-03-27T01:44:06.758Z,963.33
2016-03-27T01:45:06.746Z,963.33
2016-03-27T01:46:06.749Z,963.3
2016-03-27T01:47:06.752Z,963.26
2016-03-27T01:48:06.738Z,963.27
2016-03-27T01:49:06.741Z,963.25
2016-03-27T01:50:06.744Z,963.2
2016-03-27T01:51:06.747Z,963.19
2016-03-27T01:52:06.733Z,963.16
2016-03-27T01:53:06.736Z,963.1
2016-03-27T01:54:06.739Z,963.13
2016-03-27T01:55:06.741Z,963.08
2016-03-27T01:56:06.744Z,963.07
2016-03-27T01:57:06.747Z,963.05
2016-03-27T01:58:06.749Z,963.02
2016-03-27T01:59:06.737Z,963.01
2016-03-27T02:00:06.740Z,962.99
2016-03-27T02:01:06.742Z,962.99
2016-03-27T02:02:06.745Z,962.96
2016-03-27T02:03:06.748Z,963
2016-03-27T02:04:06.734Z,962.93
2016-03-27T02:05:06.738Z,962.89
2016-03-27T02:06:06.740Z,962.84
2016-03-27T02:07:06.732Z,962.81
2016-03-27T02:08:06.738Z,962.81
2016-03-27T02:09:06.740Z,962.81
2016-03-27T02:10:07.813Z,962.8
2016-03-27T02:11:06.740Z,962.74
2016-03-27T02:12:06.743Z,962.72
2016-03-27T02:13:06.730Z,962.74
2016-03-27T02:14:06.749Z,962.66
2016-03-27T02:15:06.736Z,962.64
2016-03-27T02:16:06.738Z,962.68
2016-03-27T02:17:06.756Z,962.69
2016-03-27T02:18:06.728Z,962.66
2016-03-27T02:19:06.731Z,962.65
2016-03-27T02:20:06.734Z,962.66
2016-03-27T02:21:06.736Z,962.65
2016-03-27T02:22:06.723Z,962.66
2016-03-27T02:23:06.726Z,962.64
2016-03-27T02:24:06.728Z,962.67
2016-03-27T02:25:06.730Z,962.67
2016-03-27T02:26:06.733Z,962.69
2016-03-27T02:27:06.721Z,962.66
2016-03-27T02:28:06.724Z,962.66
2016-03-27T02:29:06.727Z,962.61
2016-03-27T02:30:06.729Z,962.54
2016-03-27T02:31:06.732Z,962.57
2016-03-27T02:32:06.735Z,962.52
2016-03-27T02:33:06.721Z,962.52
2016-03-27T02:34:06.724Z,962.54
2016-03-27T02:35:06.726Z,962.58
2016-03-27T02:36:06.730Z,962.53
2016-03-27T02:37:06.732Z,962.53
2016-03-27T02:38:06.720Z,962.5
2016-03-27T02:39:06.723Z,962.48
2016-03-27T02:40:06.725Z,962.47
2016-03-27T02:41:06.728Z,962.44
2016-03-27T02:42:06.731Z,962.42
2016-03-27T02:43:06.717Z,962.41
2016-03-27T02:44:06.720Z,962.46
2016-03-27T02:45:06.722Z,962.44
2016-03-27T02:46:06.725Z,962.35
2016-03-27T02:47:06.728Z,962.34
2016-03-27T02:48:06.715Z,962.31
2016-03-27T02:49:06.717Z,962.32
2016-03-27T02:50:06.720Z,962.28
2016-03-27T02:51:06.723Z,962.23
2016-03-27T02:52:06.725Z,962.22
2016-03-27T02:53:06.713Z,962.21
2016-03-27T02:54:06.716Z,962.19
2016-03-27T02:55:06.718Z,962.22
2016-03-27T02:56:06.721Z,962.2
2016-03-27T02:57:06.724Z,962.27
2016-03-27T02:58:06.710Z,962.26
2016-03-27T02:59:06.714Z,962.26
2016-03-27T03:00:06.716Z,962.23
2016-03-27T03:01:06.718Z,962.25
2016-03-27T03:02:06.753Z,962.24
2016-03-27T03:03:06.708Z,962.3
2016-03-27T03:04:06.711Z,962.31
2016-03-27T03:05:06.714Z,962.35
2016-03-27T03:06:06.716Z,962.32
2016-03-27T03:07:06.719Z,962.31
2016-03-27T03:08:06.707Z,962.29
2016-03-27T03:09:06.709Z,962.33
2016-03-27T03:10:06.711Z,962.28
2016-03-27T03:11:06.715Z,962.34
2016-03-27T03:12:06.717Z,962.37
2016-03-27T03:13:06.704Z,962.32
2016-03-27T03:14:06.723Z,962.29
2016-03-27T03:15:06.709Z,962.25
2016-03-27T03:16:06.712Z,962.22
2016-03-27T03:17:06.809Z,962.23
2016-03-27T03:18:06.702Z,962.18
2016-03-27T03:19:06.705Z,962.15
2016-03-27T03:20:06.708Z,962.12
2016-03-27T03:21:06.710Z,962.14
2016-03-27T03:22:06.714Z,962.15
2016-03-27T03:23:06.700Z,962.13
2016-03-27T03:24:06.702Z,962.13
2016-03-27T03:25:06.706Z,962.11
2016-03-27T03:26:06.708Z,962.08
2016-03-27T03:27:06.711Z,962.08
2016-03-27T03:28:06.713Z,962.05
2016-03-27T03:29:06.700Z,962.04
2016-03-27T03:30:06.702Z,962.03
2016-03-27T03:31:06.706Z,961.97
2016-03-27T03:32:06.708Z,961.95
2016-03-27T03:33:06.695Z,961.95
2016-03-27T03:34:06.699Z,962.03
2016-03-27T03:35:06.701Z,962.05
2016-03-27T03:36:06.703Z,962.05
2016-03-27T03:37:06.707Z,962.04
2016-03-27T03:38:06.693Z,961.99
2016-03-27T03:39:06.696Z,961.98
2016-03-27T03:40:06.699Z,961.93
2016-03-27T03:41:06.701Z,961.91
2016-03-27T03:42:06.704Z,961.87
2016-03-27T03:43:06.707Z,961.93
2016-03-27T03:44:06.693Z,961.96
2016-03-27T03:45:06.696Z,961.9
2016-03-27T03:46:06.699Z,961.86
2016-03-27T03:47:06.686Z,961.78
2016-03-27T03:48:06.689Z,961.73
2016-03-27T03:49:06.692Z,961.71
2016-03-27T03:50:06.694Z,961.77
2016-03-27T03:51:06.697Z,961.73
2016-03-27T03:52:06.684Z,961.73
2016-03-27T03:53:06.686Z,961.73
2016-03-27T03:54:06.689Z,961.68
2016-03-27T03:55:06.692Z,961.68
2016-03-27T03:56:06.694Z,961.62
2016-03-27T03:57:06.683Z,961.58
2016-03-27T03:58:06.685Z,961.6
2016-03-27T03:59:06.688Z,961.58
2016-03-27T04:00:06.690Z,961.61
2016-03-27T04:01:06.677Z,961.61
2016-03-27T04:02:06.711Z,961.65
2016-03-27T04:03:06.682Z,961.65
2016-03-27T04:04:06.685Z,961.65
2016-03-27T04:05:06.688Z,961.66
2016-03-27T04:06:06.691Z,961.72
2016-03-27T04:07:06.678Z,961.74
2016-03-27T04:08:06.682Z,961.82
2016-03-27T04:09:06.684Z,961.79
2016-03-27T04:10:06.687Z,961.83
2016-03-27T04:11:06.675Z,961.91
2016-03-27T04:12:06.677Z,961.91
2016-03-27T04:13:06.680Z,961.92
2016-03-27T04:14:06.683Z,961.89
2016-03-27T04:15:06.686Z,961.97
2016-03-27T04:16:06.672Z,961.9
2016-03-27T04:17:06.691Z,961.9
2016-03-27T04:18:06.678Z,961.86
2016-03-27T04:19:06.681Z,961.77
2016-03-27T04:20:06.683Z,961.8
2016-03-27T04:21:06.669Z,961.73
2016-03-27T04:22:06.673Z,961.73
2016-03-27T04:23:06.675Z,961.71
2016-03-27T04:24:06.678Z,961.68
2016-03-27T04:25:06.681Z,961.62
2016-03-27T04:26:06.668Z,961.62
2016-03-27T04:27:06.671Z,961.58
2016-03-27T04:28:06.674Z,961.56
2016-03-27T04:29:06.660Z,961.51
2016-03-27T04:30:06.662Z,961.56
2016-03-27T04:31:06.666Z,961.54
2016-03-27T04:32:06.668Z,961.54
2016-03-27T04:33:06.671Z,961.54
2016-03-27T04:34:06.674Z,961.53
2016-03-27T04:35:06.661Z,961.54
2016-03-27T04:36:06.664Z,961.52
2016-03-27T04:37:06.667Z,961.6
2016-03-27T04:38:06.670Z,961.6
2016-03-27T04:39:06.672Z,961.64
2016-03-27T04:40:06.659Z,961.67
2016-03-27T04:41:06.661Z,961.71
2016-03-27T04:42:06.665Z,961.72
2016-03-27T04:43:06.667Z,961.77
2016-03-27T04:44:06.653Z,961.77
2016-03-27T04:45:06.656Z,961.77
2016-03-27T04:46:06.659Z,961.75
2016-03-27T04:47:06.662Z,961.74
2016-03-27T04:48:06.664Z,961.68
2016-03-27T04:49:06.652Z,961.66
2016-03-27T04:50:06.655Z,961.66
2016-03-27T04:51:06.657Z,961.64
2016-03-27T04:52:06.660Z,961.65
2016-03-27T04:53:06.663Z,961.65
2016-03-27T04:54:06.665Z,961.64
2016-03-27T04:55:06.668Z,961.58
2016-03-27T04:56:06.655Z,961.6
2016-03-27T04:57:06.657Z,961.55
2016-03-27T04:58:06.660Z,961.51
2016-03-27T04:59:06.647Z,961.5
2016-03-27T05:00:06.649Z,961.46
2016-03-27T05:01:06.652Z,961.51
2016-03-27T05:02:06.655Z,961.56
2016-03-27T05:03:06.642Z,961.59
2016-03-27T05:04:06.645Z,961.6
2016-03-27T05:05:06.648Z,961.62
2016-03-27T05:06:06.650Z,961.6
2016-03-27T05:07:06.654Z,961.56
2016-03-27T05:08:06.640Z,961.51
2016-03-27T05:09:06.643Z,961.51
2016-03-27T05:10:06.646Z,961.46
2016-03-27T05:11:06.648Z,961.49
2016-03-27T05:12:06.651Z,961.47
2016-03-27T05:13:06.638Z,961.45
2016-03-27T05:14:06.641Z,961.47
2016-03-27T05:15:06.643Z,961.44
2016-03-27T05:16:06.647Z,961.43
2016-03-27T05:17:06.649Z,961.37
2016-03-27T05:18:06.636Z,961.38
2016-03-27T05:19:06.639Z,961.36
2016-03-27T05:20:06.641Z,961.32
2016-03-27T05:21:06.644Z,961.32
2016-03-27T05:22:06.647Z,961.37
2016-03-27T05:23:06.649Z,961.35
2016-03-27T05:24:06.636Z,961.33
2016-03-27T05:25:06.639Z,961.28
2016-03-27T05:26:06.641Z,961.3
2016-03-27T05:27:06.645Z,961.28
2016-03-27T05:28:06.632Z,961.27
2016-03-27T05:29:06.634Z,961.28
2016-03-27T05:30:06.638Z,961.27
2016-03-27T05:31:06.640Z,961.27
2016-03-27T05:32:06.642Z,961.23
2016-03-27T05:33:06.629Z,961.18
2016-03-27T05:34:06.632Z,961.17
2016-03-27T05:35:06.635Z,961.04
2016-03-27T05:36:06.638Z,961.04
2016-03-27T05:37:06.624Z,961.08
2016-03-27T05:38:06.626Z,961.07
2016-03-27T05:39:06.630Z,961.06
2016-03-27T05:40:06.632Z,961.06
2016-03-27T05:41:06.634Z,961.06
2016-03-27T05:42:06.638Z,961.05
2016-03-27T05:43:06.640Z,961.07
2016-03-27T05:44:06.628Z,961.09
2016-03-27T05:45:06.631Z,961.16
2016-03-27T05:46:06.633Z,961.18
2016-03-27T05:47:06.636Z,961.2
2016-03-27T05:48:06.638Z,961.2
2016-03-27T05:49:06.625Z,961.23
2016-03-27T05:50:06.628Z,961.24
2016-03-27T05:51:06.631Z,961.21
2016-03-27T05:52:06.633Z,961.22
2016-03-27T05:53:06.637Z,961.2
2016-03-27T05:54:06.639Z,961.21
2016-03-27T05:55:06.641Z,961.23
2016-03-27T05:56:06.644Z,961.22
2016-03-27T05:57:06.632Z,961.18
2016-03-27T05:58:06.634Z,961.14
2016-03-27T05:59:06.637Z,961.11
2016-03-27T06:00:06.640Z,961.12
2016-03-27T06:01:06.626Z,961.06
2016-03-27T06:02:06.630Z,961.08
2016-03-27T06:03:06.632Z,961.14
2016-03-27T06:04:06.634Z,961.11
2016-03-27T06:05:06.638Z,961.15
2016-03-27T06:06:06.640Z,961.14
2016-03-27T06:07:06.642Z,961.12
2016-03-27T06:08:06.646Z,961.12
2016-03-27T06:09:06.648Z,961.19
2016-03-27T06:10:06.635Z,961.23
2016-03-27T06:11:06.638Z,961.28
2016-03-27T06:12:06.640Z,961.24
2016-03-27T06:13:06.643Z,961.18
2016-03-27T06:14:06.646Z,961.24
2016-03-27T06:15:06.633Z,961.27
2016-03-27T06:16:06.635Z,961.24
2016-03-27T06:17:06.639Z,961.19
2016-03-27T06:18:06.641Z,961.22
2016-03-27T06:19:06.644Z,961.17
2016-03-27T06:20:06.647Z,961.2
2016-03-27T06:21:06.649Z,961.22
2016-03-27T06:22:06.652Z,961.31
2016-03-27T06:23:06.655Z,961.35
2016-03-27T06:24:06.657Z,961.35
2016-03-27T06:25:06.660Z,961.4
2016-03-27T06:26:06.663Z,961.46
2016-03-27T06:27:06.649Z,961.49
2016-03-27T06:28:06.653Z,961.55
2016-03-27T06:29:06.655Z,961.49
2016-03-27T06:30:06.657Z,961.52
2016-03-27T06:31:06.661Z,961.44
2016-03-27T06:32:06.663Z,961.4
2016-03-27T06:33:06.665Z,961.37
2016-03-27T06:34:06.669Z,961.41
2016-03-27T06:35:06.671Z,961.39
2016-03-27T06:36:06.674Z,961.35
2016-03-27T06:37:06.676Z,961.41
2016-03-27T06:38:06.679Z,961.44
2016-03-27T06:39:06.682Z,961.48
2016-03-27T06:40:06.684Z,961.37
2016-03-27T06:41:06.687Z,961.32
2016-03-27T06:42:06.690Z,961.27
2016-03-27T06:43:06.692Z,961.22
2016-03-27T06:44:06.712Z,961.17
2016-03-27T06:45:06.698Z,961.19
2016-03-27T06:46:06.701Z,961.27
2016-03-27T06:47:06.703Z,961.33
2016-03-27T06:48:06.706Z,961.3
2016-03-27T06:49:06.709Z,961.26
2016-03-27T06:50:06.712Z,961.21
2016-03-27T06:51:06.714Z,961.29
2016-03-27T06:52:06.717Z,961.33
2016-03-27T06:53:06.719Z,961.38
2016-03-27T06:54:06.722Z,961.39
2016-03-27T06:55:06.724Z,961.49
2016-03-27T06:56:06.728Z,961.6
2016-03-27T06:57:06.730Z,961.6
2016-03-27T06:58:06.732Z,961.58
2016-03-27T06:59:06.736Z,961.58
2016-03-27T07:00:06.738Z,961.58
2016-03-27T07:01:06.741Z,961.64
2016-03-27T07:02:06.744Z,961.76
2016-03-27T07:03:06.746Z,962.03
2016-03-27T07:04:06.749Z,962.37
2016-03-27T07:05:06.752Z,962.87
2016-03-27T07:06:06.754Z,963.24
2016-03-27T07:07:06.757Z,963.34
2016-03-27T07:08:06.760Z,963.28
2016-03-27T07:09:06.763Z,963.1
2016-03-27T07:10:06.765Z,962.82
2016-03-27T07:11:06.767Z,962.66
2016-03-27T07:12:06.771Z,962.69
2016-03-27T07:13:06.773Z,962.79
2016-03-27T07:14:06.775Z,963.04
2016-03-27T07:15:06.779Z,963.23
2016-03-27T07:16:06.781Z,963.33
2016-03-27T07:17:06.784Z,963.34
2016-03-27T07:18:06.787Z,963.11
2016-03-27T07:19:06.789Z,963.05
2016-03-27T07:20:06.792Z,962.99
2016-03-27T07:21:06.795Z,962.87
2016-03-27T07:22:06.797Z,962.8
2016-03-27T07:23:06.800Z,962.75
2016-03-27T07:24:06.803Z,962.76
2016-03-27T07:25:06.806Z,962.72
2016-03-27T07:26:06.792Z,962.66
2016-03-27T07:27:06.811Z,962.82
2016-03-27T07:28:06.798Z,962.98
2016-03-27T07:29:06.801Z,962.91
2016-03-27T07:30:06.802Z,962.87
2016-03-27T07:31:06.806Z,962.89
2016-03-27T07:32:06.808Z,962.98
2016-03-27T07:33:06.811Z,963.17
2016-03-27T07:34:06.814Z,963.24
2016-03-27T07:35:06.816Z,963.19
2016-03-27T07:36:06.819Z,963.29
2016-03-27T07:37:06.822Z,963.35
2016-03-27T07:38:06.824Z,963.4
2016-03-27T07:39:06.827Z,963.4
2016-03-27T07:40:06.830Z,963.49
2016-03-27T07:41:06.832Z,963.57
2016-03-27T07:42:06.836Z,963.63
2016-03-27T07:43:06.823Z,963.63
2016-03-27T07:44:06.825Z,963.63
2016-03-27T07:45:06.829Z,963.69
2016-03-27T07:46:06.831Z,963.72
2016-03-27T07:47:06.833Z,963.72
2016-03-27T07:48:06.836Z,963.8
2016-03-27T07:49:06.839Z,963.71
2016-03-27T07:50:06.857Z,963.76
2016-03-27T07:51:06.844Z,963.78
2016-03-27T07:52:06.847Z,963.74
2016-03-27T07:53:06.850Z,963.75
2016-03-27T07:54:06.852Z,963.74
2016-03-27T07:55:06.839Z,963.76
2016-03-27T07:56:06.858Z,963.79
2016-03-27T07:57:06.844Z,963.88
2016-03-27T07:58:06.848Z,963.81
2016-03-27T07:59:06.850Z,963.79
2016-03-27T08:00:06.852Z,963.84
2016-03-27T08:01:06.856Z,963.9
2016-03-27T08:02:06.858Z,963.94
2016-03-27T08:03:06.860Z,963.97
2016-03-27T08:04:06.863Z,964.01
2016-03-27T08:05:06.866Z,964.06
2016-03-27T08:06:06.868Z,964.09
2016-03-27T08:07:06.872Z,964.15
2016-03-27T08:08:06.874Z,964.22
2016-03-27T08:09:06.876Z,964.18
2016-03-27T08:10:06.880Z,964.24
2016-03-27T08:11:06.882Z,964.31
2016-03-27T08:12:06.869Z,964.28
2016-03-27T08:13:06.888Z,964.32
2016-03-27T08:14:06.875Z,964.32
2016-03-27T08:15:06.878Z,964.39
2016-03-27T08:16:06.896Z,964.41
2016-03-27T08:17:06.898Z,964.38
2016-03-27T08:18:06.886Z,964.4
2016-03-27T08:19:06.889Z,964.41
2016-03-27T08:20:06.891Z,964.41
2016-03-27T08:21:06.894Z,964.39
2016-03-27T08:22:06.897Z,964.48
2016-03-27T08:23:06.900Z,964.51
2016-03-27T08:24:06.902Z,964.43
2016-03-27T08:25:06.905Z,964.52
2016-03-27T08:26:06.907Z,964.58
2016-03-27T08:27:06.910Z,964.61
2016-03-27T08:28:06.913Z,964.63
2016-03-27T08:29:06.915Z,964.64
2016-03-27T08:30:06.918Z,964.66
2016-03-27T08:31:06.921Z,964.67
2016-03-27T08:32:06.924Z,964.68
2016-03-27T08:33:06.957Z,964.68
2016-03-27T08:34:06.929Z,964.68
2016-03-27T08:35:06.932Z,964.7
2016-03-27T08:36:06.934Z,964.7
2016-03-27T08:37:06.937Z,964.72
2016-03-27T08:38:06.940Z,964.75
2016-03-27T08:39:06.942Z,964.75
2016-03-27T08:40:06.946Z,964.85
2016-03-27T08:41:06.948Z,964.82
2016-03-27T08:42:06.950Z,964.84
2016-03-27T08:43:06.953Z,964.88
2016-03-27T08:44:06.956Z,964.93
2016-03-27T08:45:06.958Z,964.94
2016-03-27T08:46:06.961Z,964.93
2016-03-27T08:47:06.964Z,964.9
2016-03-27T08:48:06.966Z,964.9
2016-03-27T08:49:06.970Z,964.88
2016-03-27T08:50:07.018Z,964.89
2016-03-27T08:51:06.974Z,964.96
2016-03-27T08:52:06.978Z,964.89
2016-03-27T08:53:06.980Z,964.92
2016-03-27T08:54:06.982Z,964.93
2016-03-27T08:55:06.986Z,964.92
2016-03-27T08:56:06.988Z,964.96
2016-03-27T08:57:06.991Z,964.86
2016-03-27T08:58:06.994Z,964.91
2016-03-27T08:59:07.042Z,964.88
2016-03-27T09:00:06.999Z,964.93
2016-03-27T09:01:07.001Z,964.91
2016-03-27T09:02:07.004Z,964.94
2016-03-27T09:03:07.053Z,964.95
2016-03-27T09:04:07.009Z,964.92
2016-03-27T09:05:07.013Z,964.96
2016-03-27T09:06:07.015Z,964.91
2016-03-27T09:07:07.018Z,964.92
2016-03-27T09:08:07.018Z,964.93
2016-03-27T09:09:07.021Z,964.94
2016-03-27T09:10:07.024Z,964.94
2016-03-27T09:11:07.026Z,964.98
2016-03-27T09:12:07.029Z,964.94
2016-03-27T09:13:07.032Z,965.01
2016-03-27T09:14:07.035Z,965.02
2016-03-27T09:15:07.037Z,964.99
2016-03-27T09:16:07.040Z,965.03
2016-03-27T09:17:07.058Z,965.1
2016-03-27T09:18:07.107Z,965.09
2016-03-27T09:19:07.048Z,965.09
2016-03-27T09:20:07.051Z,965.07
2016-03-27T09:21:07.053Z,965.08
2016-03-27T09:22:07.072Z,965.09
2016-03-27T09:23:07.074Z,965.07
2016-03-27T09:24:07.072Z,965.1
2016-03-27T09:25:07.063Z,965.09
2016-03-27T09:26:07.053Z,965.09
2016-03-27T09:27:07.044Z,965.06
2016-03-27T09:28:07.035Z,965.06
2016-03-27T09:29:07.029Z,965.06
2016-03-27T09:30:07.028Z,965.02
2016-03-27T09:31:07.042Z,965.03
2016-03-27T09:32:07.024Z,965.07
2016-03-27T09:33:07.148Z,965.1
2016-03-27T09:34:07.022Z,965.12
2016-03-27T09:35:07.023Z,965.12
2016-03-27T09:36:07.024Z,965.13
2016-03-27T09:37:07.042Z,965.14
2016-03-27T09:38:07.043Z,965.14
2016-03-27T09:39:07.045Z,965.15
2016-03-27T09:40:07.047Z,965.17
2016-03-27T09:41:07.049Z,965.14
2016-03-27T09:42:07.052Z,965.1
2016-03-27T09:43:07.053Z,965.1
2016-03-27T09:44:07.055Z,965.12
2016-03-27T09:45:07.058Z,965.11
2016-03-27T09:46:07.060Z,965.15
2016-03-27T09:47:07.063Z,965.2
2016-03-27T09:48:07.159Z,965.2
2016-03-27T09:49:07.067Z,965.21
2016-03-27T09:50:07.085Z,965.24
2016-03-27T09:51:07.088Z,965.25
2016-03-27T09:52:07.091Z,965.24
2016-03-27T09:53:07.093Z,965.18
2016-03-27T09:54:07.096Z,965.19
2016-03-27T09:55:07.098Z,965.18
2016-03-27T09:56:07.102Z,965.18
2016-03-27T09:57:07.104Z,965.19
2016-03-27T09:58:07.106Z,965.17
2016-03-27T09:59:07.110Z,965.18
2016-03-27T10:00:07.128Z,965.18
2016-03-27T10:01:07.114Z,965.13
2016-03-27T10:02:07.118Z,965.14
2016-03-27T10:03:07.136Z,965.15
2016-03-27T10:04:07.139Z,965.13
2016-03-27T10:05:07.142Z,965.11
2016-03-27T10:06:07.144Z,965.04
2016-03-27T10:07:07.147Z,965.08
2016-03-27T10:08:07.150Z,965.1
2016-03-27T10:09:07.152Z,965.06
2016-03-27T10:10:07.155Z,965.15
2016-03-27T10:11:07.158Z,965.13
2016-03-27T10:12:07.160Z,965.07
2016-03-27T10:13:07.179Z,965.15
2016-03-27T10:14:07.182Z,965.19
2016-03-27T10:15:07.184Z,965.19
2016-03-27T10:16:07.187Z,965.14
2016-03-27T10:17:07.190Z,965.12
2016-03-27T10:18:07.239Z,965.19
2016-03-27T10:19:07.195Z,965.15
2016-03-27T10:20:07.198Z,965.18
2016-03-27T10:21:07.200Z,965.17
2016-03-27T10:22:07.204Z,965.13
2016-03-27T10:23:07.206Z,965.15
2016-03-27T10:24:07.208Z,965.14
2016-03-27T10:25:07.212Z,965.12
2016-03-27T10:26:07.229Z,965.18
2016-03-27T10:27:07.231Z,965.16
2016-03-27T10:28:07.235Z,965.2
2016-03-27T10:29:07.237Z,965.26
2016-03-27T10:30:07.240Z,965.23
2016-03-27T10:31:07.242Z,965.21
2016-03-27T10:32:07.245Z,965.21
2016-03-27T10:33:07.263Z,965.22
2016-03-27T10:34:07.267Z,965.26
2016-03-27T10:35:07.253Z,965.2
2016-03-27T10:36:07.271Z,965.18
2016-03-27T10:37:07.275Z,965.25
2016-03-27T10:38:07.277Z,965.28
2016-03-27T10:39:07.280Z,965.34
2016-03-27T10:40:07.283Z,965.32
2016-03-27T10:41:07.285Z,965.33
2016-03-27T10:42:07.288Z,965.33
2016-03-27T10:43:07.291Z,965.34
2016-03-27T10:44:07.293Z,965.34
2016-03-27T10:45:07.296Z,965.4
2016-03-27T10:46:07.299Z,965.37
2016-03-27T10:47:07.318Z,965.38
2016-03-27T10:48:07.321Z,965.35
2016-03-27T10:49:07.323Z,965.39
2016-03-27T10:50:07.325Z,965.37
2016-03-27T10:51:07.328Z,965.37
2016-03-27T10:52:07.331Z,965.37
2016-03-27T10:53:07.333Z,965.37
2016-03-27T10:54:07.336Z,965.39
2016-03-27T10:55:07.339Z,965.35
2016-03-27T10:56:07.342Z,965.36
2016-03-27T10:57:07.344Z,965.37
2016-03-27T10:58:07.362Z,965.4
2016-03-27T10:59:07.365Z,965.42
2016-03-27T11:00:07.367Z,965.41
2016-03-27T11:01:07.386Z,965.45
2016-03-27T11:02:07.373Z,965.46
2016-03-27T11:03:07.375Z,965.44
2016-03-27T11:04:07.379Z,965.44
2016-03-27T11:05:07.381Z,965.48
2016-03-27T11:06:07.383Z,965.43
2016-03-27T11:07:07.387Z,965.41
2016-03-27T11:08:07.389Z,965.45
2016-03-27T11:09:07.407Z,965.46
2016-03-27T11:10:07.410Z,965.43
2016-03-27T11:11:07.413Z,965.46
2016-03-27T11:12:07.416Z,965.53
2016-03-27T11:13:07.418Z,965.5
2016-03-27T11:14:07.421Z,965.51
2016-03-27T11:15:07.424Z,965.51
2016-03-27T11:16:07.426Z,965.49
2016-03-27T11:17:07.444Z,965.52
2016-03-27T11:18:07.447Z,965.49
2016-03-27T11:19:07.449Z,965.44
2016-03-27T11:20:07.453Z,965.48
2016-03-27T11:21:07.455Z,965.43
2016-03-27T11:22:07.457Z,965.43
2016-03-27T11:23:07.461Z,965.43
2016-03-27T11:24:07.479Z,965.45
2016-03-27T11:25:07.465Z,965.46
2016-03-27T11:26:07.484Z,965.48
2016-03-27T11:27:07.487Z,965.44
2016-03-27T11:28:07.490Z,965.5
2016-03-27T11:29:07.492Z,965.47
2016-03-27T11:30:07.495Z,965.45
2016-03-27T11:31:07.498Z,965.45
2016-03-27T11:32:07.500Z,965.45
2016-03-27T11:33:07.503Z,965.45
2016-03-27T11:34:07.506Z,965.42
2016-03-27T11:35:07.525Z,965.4
2016-03-27T11:36:07.528Z,965.38
2016-03-27T11:37:07.530Z,965.37
2016-03-27T11:38:07.532Z,965.4
2016-03-27T11:39:07.535Z,965.37
2016-03-27T11:40:07.538Z,965.39
2016-03-27T11:41:07.556Z,965.36
2016-03-27T11:42:07.558Z,965.35
2016-03-27T11:43:07.593Z,965.38
2016-03-27T11:44:07.564Z,965.37
2016-03-27T11:45:07.566Z,965.33
2016-03-27T11:46:07.569Z,965.29
2016-03-27T11:47:07.572Z,965.31
2016-03-27T11:48:07.574Z,965.25
2016-03-27T11:49:07.577Z,965.26
2016-03-27T11:50:07.580Z,965.25
2016-03-27T11:51:07.583Z,965.28
2016-03-27T11:52:07.585Z,965.22
2016-03-27T11:53:07.604Z,965.2
2016-03-27T11:54:07.607Z,965.2
2016-03-27T11:55:07.609Z,965.14
2016-03-27T11:56:07.612Z,965.14
2016-03-27T11:57:07.615Z,965.14
2016-03-27T11:58:07.618Z,965.12
2016-03-27T11:59:07.636Z,965.12
2016-03-27T12:00:07.639Z,965.13
2016-03-27T12:01:07.642Z,965.13
2016-03-27T12:02:07.644Z,965.12
2016-03-27T12:03:07.646Z,965.13
2016-03-27T12:04:07.650Z,965.09
2016-03-27T12:05:07.652Z,965.09
2016-03-27T12:06:07.655Z,965.06
2016-03-27T12:07:07.658Z,965.06
2016-03-27T12:08:07.660Z,965
2016-03-27T12:09:07.678Z,965.03
2016-03-27T12:10:07.666Z,965.01
2016-03-27T12:11:07.684Z,964.99
2016-03-27T12:12:07.686Z,965.01
2016-03-27T12:13:07.689Z,964.97
2016-03-27T12:14:07.691Z,965.01
2016-03-27T12:15:07.694Z,964.98
2016-03-27T12:16:07.696Z,965.03
2016-03-27T12:17:07.700Z,965.04
2016-03-27T12:18:07.718Z,964.98
2016-03-27T12:19:07.721Z,965
2016-03-27T12:20:07.723Z,964.98
2016-03-27T12:21:07.727Z,964.98
2016-03-27T12:22:07.729Z,964.99
2016-03-27T12:23:07.731Z,965.07
2016-03-27T12:24:07.735Z,965.07
2016-03-27T12:25:07.737Z,965.07
2016-03-27T12:26:07.739Z,965.06
2016-03-27T12:27:07.742Z,965.05
2016-03-27T12:28:07.760Z,965
2016-03-27T12:29:07.763Z,965
2016-03-27T12:30:07.765Z,965.01
2016-03-27T12:31:07.768Z,965.02